sensor_id;sensor_type;location;lat;lon;timestamp;P1;durP1;ratioP1;P2;durP2;ratioP2
73266;SDS011;61495;53.400;7.608;2023-04-05T00:03:18;7.35;;;3.95;;
73266;SDS011;61495;53.400;7.608;2023-04-05T00:08:10;9.27;;;3.85;;
73266;SDS011;61495;53.400;7.608;2023-04-05T00:10:42;7.95;;;3.95;;
73266;SDS011;61495;53.400;7.608;2023-04-05T00:15:33;9.83;;;4.93;;
73266;SDS011;61495;53.400;7.608;2023-04-05T00:20:24;8.23;;;3.22;;
73266;SDS011;61495;53.400;7.608;2023-04-05T00:25:15;7.87;;;3.27;;
73266;SDS011;61495;53.400;7.608;2023-04-05T00:27:44;6.55;;;3.83;;
73266;SDS011;61495;53.400;7.608;2023-04-05T00:30:10;7.55;;;3.85;;
73266;SDS011;61495;53.400;7.608;2023-04-05T00:35:01;9.27;;;3.17;;
73266;SDS011;61495;53.400;7.608;2023-04-05T00:39:51;8.55;;;4.18;;
73266;SDS011;61495;53.400;7.608;2023-04-05T00:44:43;6.97;;;3.28;;
73266;SDS011;61495;53.400;7.608;2023-04-05T00:49:34;7.10;;;3.30;;
73266;SDS011;61495;53.400;7.608;2023-04-05T00:52:01;6.88;;;3.15;;
73266;SDS011;61495;53.400;7.608;2023-04-05T00:54:28;6.50;;;3.33;;
73266;SDS011;61495;53.400;7.608;2023-04-05T00:56:57;6.78;;;3.35;;
73266;SDS011;61495;53.400;7.608;2023-04-05T00:59:24;6.43;;;3.20;;
73266;SDS011;61495;53.400;7.608;2023-04-05T01:04:24;4.57;;;2.60;;
73266;SDS011;61495;53.400;7.608;2023-04-05T01:12:20;10.77;;;3.67;;
73266;SDS011;61495;53.400;7.608;2023-04-05T01:14:51;6.82;;;3.92;;
73266;SDS011;61495;53.400;7.608;2023-04-05T01:17:18;9.00;;;3.58;;
73266;SDS011;61495;53.400;7.608;2023-04-05T01:19:53;9.02;;;3.40;;
73266;SDS011;61495;53.400;7.608;2023-04-05T01:22:38;6.72;;;3.00;;
73266;SDS011;61495;53.400;7.608;2023-04-05T01:34:19;6.82;;;3.25;;
73266;SDS011;61495;53.400;7.608;2023-04-05T01:36:59;8.18;;;3.10;;
73266;SDS011;61495;53.400;7.608;2023-04-05T01:39:27;7.50;;;4.18;;
73266;SDS011;61495;53.400;7.608;2023-04-05T01:41:58;10.10;;;3.70;;
73266;SDS011;61495;53.400;7.608;2023-04-05T01:44:25;6.20;;;3.60;;
73266;SDS011;61495;53.400;7.608;2023-04-05T01:46:50;7.38;;;3.47;;
73266;SDS011;61495;53.400;7.608;2023-04-05T01:51:41;7.23;;;2.80;;
73266;SDS011;61495;53.400;7.608;2023-04-05T01:56:32;9.23;;;3.45;;
73266;SDS011;61495;53.400;7.608;2023-04-05T02:01:22;6.63;;;2.97;;
73266;SDS011;61495;53.400;7.608;2023-04-05T02:03:48;9.35;;;3.45;;
73266;SDS011;61495;53.400;7.608;2023-04-05T02:06:14;7.55;;;3.78;;
73266;SDS011;61495;53.400;7.608;2023-04-05T02:11:05;6.07;;;3.38;;
73266;SDS011;61495;53.400;7.608;2023-04-05T02:15:56;5.07;;;2.97;;
73266;SDS011;61495;53.400;7.608;2023-04-05T02:18:21;7.97;;;3.40;;
73266;SDS011;61495;53.400;7.608;2023-04-05T02:20:59;8.25;;;4.40;;
73266;SDS011;61495;53.400;7.608;2023-04-05T02:25:52;8.43;;;3.30;;
73266;SDS011;61495;53.400;7.608;2023-04-05T02:28:17;7.55;;;3.80;;
73266;SDS011;61495;53.400;7.608;2023-04-05T02:30:42;6.68;;;3.17;;
73266;SDS011;61495;53.400;7.608;2023-04-05T02:35:34;5.82;;;3.28;;
73266;SDS011;61495;53.400;7.608;2023-04-05T02:38:00;5.78;;;3.50;;
73266;SDS011;61495;53.400;7.608;2023-04-05T02:40:26;7.32;;;3.25;;
73266;SDS011;61495;53.400;7.608;2023-04-05T02:45:16;7.07;;;2.80;;
73266;SDS011;61495;53.400;7.608;2023-04-05T02:47:42;7.93;;;3.35;;
73266;SDS011;61495;53.400;7.608;2023-04-05T02:50:07;10.57;;;3.40;;
73266;SDS011;61495;53.400;7.608;2023-04-05T02:52:32;7.13;;;3.00;;
73266;SDS011;61495;53.400;7.608;2023-04-05T02:54:58;7.35;;;3.17;;
73266;SDS011;61495;53.400;7.608;2023-04-05T02:57:23;9.45;;;4.05;;
73266;SDS011;61495;53.400;7.608;2023-04-05T02:59:49;8.13;;;4.57;;
73266;SDS011;61495;53.400;7.608;2023-04-05T03:02:16;7.65;;;3.67;;
73266;SDS011;61495;53.400;7.608;2023-04-05T03:04:41;8.02;;;3.92;;
73266;SDS011;61495;53.400;7.608;2023-04-05T03:07:08;7.22;;;3.60;;
73266;SDS011;61495;53.400;7.608;2023-04-05T03:09:34;8.05;;;4.10;;
73266;SDS011;61495;53.400;7.608;2023-04-05T03:12:02;6.68;;;3.53;;
73266;SDS011;61495;53.400;7.608;2023-04-05T03:14:28;8.70;;;3.30;;
73266;SDS011;61495;53.400;7.608;2023-04-05T03:16:54;7.45;;;2.55;;
73266;SDS011;61495;53.400;7.608;2023-04-05T03:19:20;7.78;;;3.65;;
73266;SDS011;61495;53.400;7.608;2023-04-05T03:21:48;9.55;;;3.65;;
73266;SDS011;61495;53.400;7.608;2023-04-05T03:24:14;6.65;;;3.38;;
73266;SDS011;61495;53.400;7.608;2023-04-05T03:26:49;10.68;;;5.32;;
73266;SDS011;61495;53.400;7.608;2023-04-05T03:29:15;7.63;;;4.13;;
73266;SDS011;61495;53.400;7.608;2023-04-05T03:34:06;7.75;;;3.63;;
73266;SDS011;61495;53.400;7.608;2023-04-05T03:36:32;9.32;;;3.53;;
73266;SDS011;61495;53.400;7.608;2023-04-05T03:39:12;9.80;;;3.78;;
73266;SDS011;61495;53.400;7.608;2023-04-05T03:41:38;9.95;;;4.53;;
73266;SDS011;61495;53.400;7.608;2023-04-05T03:44:05;8.25;;;4.38;;
73266;SDS011;61495;53.400;7.608;2023-04-05T03:46:31;8.93;;;4.55;;
73266;SDS011;61495;53.400;7.608;2023-04-05T03:48:57;10.13;;;4.68;;
73266;SDS011;61495;53.400;7.608;2023-04-05T03:51:23;9.75;;;4.35;;
73266;SDS011;61495;53.400;7.608;2023-04-05T03:53:51;8.77;;;4.47;;
73266;SDS011;61495;53.400;7.608;2023-04-05T03:56:17;7.65;;;3.65;;
73266;SDS011;61495;53.400;7.608;2023-04-05T03:58:42;9.02;;;4.05;;
73266;SDS011;61495;53.400;7.608;2023-04-05T04:01:08;8.40;;;4.22;;
73266;SDS011;61495;53.400;7.608;2023-04-05T04:03:34;10.23;;;4.88;;
73266;SDS011;61495;53.400;7.608;2023-04-05T04:06:01;8.88;;;4.25;;
73266;SDS011;61495;53.400;7.608;2023-04-05T04:08:27;9.95;;;4.32;;
73266;SDS011;61495;53.400;7.608;2023-04-05T04:10:53;8.23;;;4.55;;
73266;SDS011;61495;53.400;7.608;2023-04-05T04:15:44;7.43;;;3.53;;
73266;SDS011;61495;53.400;7.608;2023-04-05T04:18:09;7.78;;;4.00;;
73266;SDS011;61495;53.400;7.608;2023-04-05T04:20:36;7.40;;;3.95;;
73266;SDS011;61495;53.400;7.608;2023-04-05T04:23:02;7.72;;;4.20;;
73266;SDS011;61495;53.400;7.608;2023-04-05T04:25:28;10.82;;;4.05;;
73266;SDS011;61495;53.400;7.608;2023-04-05T04:27:54;8.43;;;4.10;;
73266;SDS011;61495;53.400;7.608;2023-04-05T04:30:20;7.75;;;4.43;;
73266;SDS011;61495;53.400;7.608;2023-04-05T04:35:24;7.95;;;3.40;;
73266;SDS011;61495;53.400;7.608;2023-04-05T04:37:53;7.38;;;3.70;;
73266;SDS011;61495;53.400;7.608;2023-04-05T04:40:22;7.03;;;4.10;;
73266;SDS011;61495;53.400;7.608;2023-04-05T04:43:07;7.10;;;4.28;;
73266;SDS011;61495;53.400;7.608;2023-04-05T04:45:41;8.63;;;4.00;;
73266;SDS011;61495;53.400;7.608;2023-04-05T04:48:12;9.35;;;4.32;;
73266;SDS011;61495;53.400;7.608;2023-04-05T04:50:38;10.43;;;4.20;;
73266;SDS011;61495;53.400;7.608;2023-04-05T04:55:30;8.90;;;4.03;;
73266;SDS011;61495;53.400;7.608;2023-04-05T04:57:57;9.30;;;4.05;;
73266;SDS011;61495;53.400;7.608;2023-04-05T05:00:23;9.60;;;4.47;;
73266;SDS011;61495;53.400;7.608;2023-04-05T05:05:14;6.80;;;3.35;;
73266;SDS011;61495;53.400;7.608;2023-04-05T05:07:40;7.63;;;3.67;;
73266;SDS011;61495;53.400;7.608;2023-04-05T05:12:32;7.13;;;3.88;;
73266;SDS011;61495;53.400;7.608;2023-04-05T05:14:58;8.10;;;4.20;;
73266;SDS011;61495;53.400;7.608;2023-04-05T05:19:48;8.60;;;3.67;;
73266;SDS011;61495;53.400;7.608;2023-04-05T05:22:14;6.45;;;3.75;;
73266;SDS011;61495;53.400;7.608;2023-04-05T05:24:40;11.02;;;4.70;;
73266;SDS011;61495;53.400;7.608;2023-04-05T05:27:06;10.13;;;4.57;;
73266;SDS011;61495;53.400;7.608;2023-04-05T05:29:32;8.52;;;4.78;;
73266;SDS011;61495;53.400;7.608;2023-04-05T05:31:57;10.00;;;4.13;;
73266;SDS011;61495;53.400;7.608;2023-04-05T05:34:22;7.65;;;3.70;;
73266;SDS011;61495;53.400;7.608;2023-04-05T05:39:13;8.82;;;3.85;;
73266;SDS011;61495;53.400;7.608;2023-04-05T05:41:40;9.85;;;4.25;;
73266;SDS011;61495;53.400;7.608;2023-04-05T05:44:05;8.77;;;4.50;;
73266;SDS011;61495;53.400;7.608;2023-04-05T05:46:30;8.82;;;4.65;;
73266;SDS011;61495;53.400;7.608;2023-04-05T05:48:56;8.30;;;4.60;;
73266;SDS011;61495;53.400;7.608;2023-04-05T05:51:21;10.13;;;4.50;;
73266;SDS011;61495;53.400;7.608;2023-04-05T05:53:47;8.07;;;4.43;;
73266;SDS011;61495;53.400;7.608;2023-04-05T05:56:12;10.27;;;4.97;;
73266;SDS011;61495;53.400;7.608;2023-04-05T05:58:37;8.90;;;4.75;;
73266;SDS011;61495;53.400;7.608;2023-04-05T06:01:04;8.98;;;5.00;;
73266;SDS011;61495;53.400;7.608;2023-04-05T06:03:31;7.47;;;4.20;;
73266;SDS011;61495;53.400;7.608;2023-04-05T06:05:57;10.50;;;5.03;;
73266;SDS011;61495;53.400;7.608;2023-04-05T06:08:24;10.57;;;5.15;;
73266;SDS011;61495;53.400;7.608;2023-04-05T06:10:52;11.85;;;5.22;;
73266;SDS011;61495;53.400;7.608;2023-04-05T06:13:17;8.30;;;4.57;;
73266;SDS011;61495;53.400;7.608;2023-04-05T06:18:08;14.98;;;5.63;;
73266;SDS011;61495;53.400;7.608;2023-04-05T06:23:04;11.25;;;6.07;;
73266;SDS011;61495;53.400;7.608;2023-04-05T06:27:55;10.70;;;5.13;;
73266;SDS011;61495;53.400;7.608;2023-04-05T06:30:20;12.87;;;5.73;;
73266;SDS011;61495;53.400;7.608;2023-04-05T06:35:12;8.85;;;3.72;;
73266;SDS011;61495;53.400;7.608;2023-04-05T06:40:03;8.57;;;4.30;;
73266;SDS011;61495;53.400;7.608;2023-04-05T06:44:54;9.93;;;5.17;;
73266;SDS011;61495;53.400;7.608;2023-04-05T06:47:19;8.25;;;4.18;;
73266;SDS011;61495;53.400;7.608;2023-04-05T06:49:45;9.05;;;5.20;;
73266;SDS011;61495;53.400;7.608;2023-04-05T06:52:10;9.73;;;4.57;;
73266;SDS011;61495;53.400;7.608;2023-04-05T06:54:38;10.55;;;4.47;;
73266;SDS011;61495;53.400;7.608;2023-04-05T06:57:04;8.63;;;4.32;;
73266;SDS011;61495;53.400;7.608;2023-04-05T06:59:29;8.18;;;4.03;;
73266;SDS011;61495;53.400;7.608;2023-04-05T07:01:55;6.47;;;4.35;;
73266;SDS011;61495;53.400;7.608;2023-04-05T07:04:20;6.47;;;3.60;;
73266;SDS011;61495;53.400;7.608;2023-04-05T07:06:46;9.30;;;4.40;;
73266;SDS011;61495;53.400;7.608;2023-04-05T07:09:11;7.07;;;3.75;;
73266;SDS011;61495;53.400;7.608;2023-04-05T07:11:37;8.05;;;4.43;;
73266;SDS011;61495;53.400;7.608;2023-04-05T07:14:04;8.43;;;4.43;;
73266;SDS011;61495;53.400;7.608;2023-04-05T07:16:30;9.30;;;4.70;;
73266;SDS011;61495;53.400;7.608;2023-04-05T07:18:55;8.82;;;4.30;;
73266;SDS011;61495;53.400;7.608;2023-04-05T07:21:21;10.02;;;4.35;;
73266;SDS011;61495;53.400;7.608;2023-04-05T07:23:47;10.55;;;4.50;;
73266;SDS011;61495;53.400;7.608;2023-04-05T07:26:12;8.35;;;4.35;;
73266;SDS011;61495;53.400;7.608;2023-04-05T07:28:38;7.47;;;4.80;;
73266;SDS011;61495;53.400;7.608;2023-04-05T07:31:04;9.40;;;4.55;;
73266;SDS011;61495;53.400;7.608;2023-04-05T07:33:30;8.27;;;4.13;;
73266;SDS011;61495;53.400;7.608;2023-04-05T07:35:56;6.80;;;3.42;;
73266;SDS011;61495;53.400;7.608;2023-04-05T07:38:22;7.03;;;3.33;;
73266;SDS011;61495;53.400;7.608;2023-04-05T07:40:48;8.05;;;3.65;;
73266;SDS011;61495;53.400;7.608;2023-04-05T07:43:14;5.90;;;3.15;;
73266;SDS011;61495;53.400;7.608;2023-04-05T07:45:40;6.40;;;3.38;;
73266;SDS011;61495;53.400;7.608;2023-04-05T07:48:05;6.30;;;3.22;;
73266;SDS011;61495;53.400;7.608;2023-04-05T07:50:31;7.47;;;3.20;;
73266;SDS011;61495;53.400;7.608;2023-04-05T07:52:58;7.15;;;3.55;;
73266;SDS011;61495;53.400;7.608;2023-04-05T07:55:24;5.72;;;2.38;;
73266;SDS011;61495;53.400;7.608;2023-04-05T07:57:51;5.07;;;3.00;;
73266;SDS011;61495;53.400;7.608;2023-04-05T08:00:17;5.63;;;2.53;;
73266;SDS011;61495;53.400;7.608;2023-04-05T08:02:43;5.38;;;2.40;;
73266;SDS011;61495;53.400;7.608;2023-04-05T08:05:09;6.03;;;3.25;;
73266;SDS011;61495;53.400;7.608;2023-04-05T08:07:34;5.03;;;2.67;;
73266;SDS011;61495;53.400;7.608;2023-04-05T08:10:00;5.30;;;2.40;;
73266;SDS011;61495;53.400;7.608;2023-04-05T08:12:26;6.47;;;2.40;;
73266;SDS011;61495;53.400;7.608;2023-04-05T08:14:52;6.45;;;2.42;;
73266;SDS011;61495;53.400;7.608;2023-04-05T08:17:17;6.07;;;2.67;;
73266;SDS011;61495;53.400;7.608;2023-04-05T08:19:44;6.72;;;2.25;;
73266;SDS011;61495;53.400;7.608;2023-04-05T08:22:09;6.07;;;2.28;;
73266;SDS011;61495;53.400;7.608;2023-04-05T08:24:35;5.53;;;2.25;;
73266;SDS011;61495;53.400;7.608;2023-04-05T08:27:00;6.15;;;3.00;;
73266;SDS011;61495;53.400;7.608;2023-04-05T08:29:26;6.38;;;2.13;;
73266;SDS011;61495;53.400;7.608;2023-04-05T08:31:51;6.70;;;2.15;;
73266;SDS011;61495;53.400;7.608;2023-04-05T08:34:16;4.18;;;1.70;;
73266;SDS011;61495;53.400;7.608;2023-04-05T08:36:42;6.75;;;2.28;;
73266;SDS011;61495;53.400;7.608;2023-04-05T08:39:07;3.90;;;2.13;;
73266;SDS011;61495;53.400;7.608;2023-04-05T08:41:35;6.03;;;2.50;;
73266;SDS011;61495;53.400;7.608;2023-04-05T08:44:05;5.78;;;2.10;;
73266;SDS011;61495;53.400;7.608;2023-04-05T08:46:34;5.07;;;2.55;;
73266;SDS011;61495;53.400;7.608;2023-04-05T08:49:03;4.82;;;2.42;;
73266;SDS011;61495;53.400;7.608;2023-04-05T08:51:31;4.60;;;2.20;;
73266;SDS011;61495;53.400;7.608;2023-04-05T08:53:57;5.30;;;2.42;;
73266;SDS011;61495;53.400;7.608;2023-04-05T08:56:25;5.45;;;1.95;;
73266;SDS011;61495;53.400;7.608;2023-04-05T08:58:55;5.72;;;1.85;;
73266;SDS011;61495;53.400;7.608;2023-04-05T09:01:25;5.68;;;2.45;;
73266;SDS011;61495;53.400;7.608;2023-04-05T09:03:53;4.03;;;1.80;;
73266;SDS011;61495;53.400;7.608;2023-04-05T09:06:20;3.72;;;1.90;;
73266;SDS011;61495;53.400;7.608;2023-04-05T09:08:46;4.20;;;2.00;;
73266;SDS011;61495;53.400;7.608;2023-04-05T09:11:12;4.80;;;2.28;;
73266;SDS011;61495;53.400;7.608;2023-04-05T09:13:40;4.07;;;1.88;;
73266;SDS011;61495;53.400;7.608;2023-04-05T09:16:05;3.67;;;2.03;;
73266;SDS011;61495;53.400;7.608;2023-04-05T09:18:31;4.25;;;2.17;;
73266;SDS011;61495;53.400;7.608;2023-04-05T09:21:03;4.10;;;1.90;;
73266;SDS011;61495;53.400;7.608;2023-04-05T09:23:29;5.10;;;2.00;;
73266;SDS011;61495;53.400;7.608;2023-04-05T09:25:55;5.20;;;2.00;;
73266;SDS011;61495;53.400;7.608;2023-04-05T09:28:20;4.15;;;2.45;;
73266;SDS011;61495;53.400;7.608;2023-04-05T09:30:46;4.95;;;1.77;;
73266;SDS011;61495;53.400;7.608;2023-04-05T09:33:14;4.20;;;1.55;;
73266;SDS011;61495;53.400;7.608;2023-04-05T09:35:43;4.10;;;1.92;;
73266;SDS011;61495;53.400;7.608;2023-04-05T09:38:09;4.72;;;2.03;;
73266;SDS011;61495;53.400;7.608;2023-04-05T09:43:13;4.90;;;2.03;;
73266;SDS011;61495;53.400;7.608;2023-04-05T09:45:58;3.67;;;1.70;;
73266;SDS011;61495;53.400;7.608;2023-04-05T09:48:46;4.20;;;2.00;;
73266;SDS011;61495;53.400;7.608;2023-04-05T09:51:16;4.53;;;2.33;;
73266;SDS011;61495;53.400;7.608;2023-04-05T09:53:55;3.55;;;1.67;;
73266;SDS011;61495;53.400;7.608;2023-04-05T09:56:35;7.70;;;3.55;;
73266;SDS011;61495;53.400;7.608;2023-04-05T09:59:09;3.92;;;2.00;;
73266;SDS011;61495;53.400;7.608;2023-04-05T10:01:36;3.95;;;1.85;;
73266;SDS011;61495;53.400;7.608;2023-04-05T10:04:02;4.70;;;1.90;;
73266;SDS011;61495;53.400;7.608;2023-04-05T10:06:35;4.95;;;1.70;;
73266;SDS011;61495;53.400;7.608;2023-04-05T10:09:02;5.07;;;2.08;;
73266;SDS011;61495;53.400;7.608;2023-04-05T10:11:29;5.82;;;2.15;;
73266;SDS011;61495;53.400;7.608;2023-04-05T10:13:56;3.92;;;2.03;;
73266;SDS011;61495;53.400;7.608;2023-04-05T10:16:24;4.55;;;1.73;;
73266;SDS011;61495;53.400;7.608;2023-04-05T10:18:52;5.38;;;2.10;;
73266;SDS011;61495;53.400;7.608;2023-04-05T10:21:20;4.63;;;1.80;;
73266;SDS011;61495;53.400;7.608;2023-04-05T10:23:48;4.57;;;2.00;;
73266;SDS011;61495;53.400;7.608;2023-04-05T10:27:14;3.03;;;1.42;;
73266;SDS011;61495;53.400;7.608;2023-04-05T10:29:37;3.80;;;1.95;;
73266;SDS011;61495;53.400;7.608;2023-04-05T10:32:21;4.22;;;2.03;;
73266;SDS011;61495;53.400;7.608;2023-04-05T10:35:05;4.47;;;2.17;;
73266;SDS011;61495;53.400;7.608;2023-04-05T10:37:39;3.85;;;1.90;;
73266;SDS011;61495;53.400;7.608;2023-04-05T10:40:16;3.72;;;1.50;;
73266;SDS011;61495;53.400;7.608;2023-04-05T10:42:44;5.88;;;2.17;;
73266;SDS011;61495;53.400;7.608;2023-04-05T10:45:12;2.88;;;1.60;;
73266;SDS011;61495;53.400;7.608;2023-04-05T10:47:45;4.13;;;1.73;;
73266;SDS011;61495;53.400;7.608;2023-04-05T10:50:15;3.70;;;1.80;;
73266;SDS011;61495;53.400;7.608;2023-04-05T10:52:45;4.40;;;1.80;;
73266;SDS011;61495;53.400;7.608;2023-04-05T10:55:12;3.92;;;1.77;;
73266;SDS011;61495;53.400;7.608;2023-04-05T10:57:39;3.38;;;1.85;;
73266;SDS011;61495;53.400;7.608;2023-04-05T11:00:06;4.07;;;1.90;;
73266;SDS011;61495;53.400;7.608;2023-04-05T11:02:34;4.72;;;2.00;;
73266;SDS011;61495;53.400;7.608;2023-04-05T11:05:03;3.92;;;1.80;;
73266;SDS011;61495;53.400;7.608;2023-04-05T11:07:42;4.75;;;2.05;;
73266;SDS011;61495;53.400;7.608;2023-04-05T11:10:14;4.35;;;1.65;;
73266;SDS011;61495;53.400;7.608;2023-04-05T11:18:09;3.67;;;1.98;;
73266;SDS011;61495;53.400;7.608;2023-04-05T11:23:12;3.83;;;2.00;;
73266;SDS011;61495;53.400;7.608;2023-04-05T11:25:39;3.70;;;1.92;;
73266;SDS011;61495;53.400;7.608;2023-04-05T11:28:10;5.25;;;2.50;;
73266;SDS011;61495;53.400;7.608;2023-04-05T11:30:49;4.00;;;1.85;;
73266;SDS011;61495;53.400;7.608;2023-04-05T11:33:35;4.70;;;2.50;;
73266;SDS011;61495;53.400;7.608;2023-04-05T11:36:01;4.05;;;2.20;;
73266;SDS011;61495;53.400;7.608;2023-04-05T11:38:27;5.40;;;2.22;;
73266;SDS011;61495;53.400;7.608;2023-04-05T11:41:04;4.45;;;2.10;;
73266;SDS011;61495;53.400;7.608;2023-04-05T11:43:36;4.13;;;2.63;;
73266;SDS011;61495;53.400;7.608;2023-04-05T11:46:06;4.18;;;2.15;;
73266;SDS011;61495;53.400;7.608;2023-04-05T11:48:31;4.32;;;1.77;;
73266;SDS011;61495;53.400;7.608;2023-04-05T11:50:58;5.50;;;2.17;;
73266;SDS011;61495;53.400;7.608;2023-04-05T11:53:24;4.18;;;2.13;;
73266;SDS011;61495;53.400;7.608;2023-04-05T11:55:50;4.38;;;2.10;;
73266;SDS011;61495;53.400;7.608;2023-04-05T11:58:20;4.05;;;2.10;;
73266;SDS011;61495;53.400;7.608;2023-04-05T12:00:56;5.53;;;1.98;;
73266;SDS011;61495;53.400;7.608;2023-04-05T12:03:23;4.25;;;2.08;;
73266;SDS011;61495;53.400;7.608;2023-04-05T12:05:52;3.80;;;2.00;;
73266;SDS011;61495;53.400;7.608;2023-04-05T12:08:20;4.60;;;2.38;;
73266;SDS011;61495;53.400;7.608;2023-04-05T12:10:56;4.32;;;2.00;;
73266;SDS011;61495;53.400;7.608;2023-04-05T12:13:28;5.00;;;2.38;;
73266;SDS011;61495;53.400;7.608;2023-04-05T12:15:59;4.07;;;1.90;;
73266;SDS011;61495;53.400;7.608;2023-04-05T12:18:27;4.50;;;2.15;;
73266;SDS011;61495;53.400;7.608;2023-04-05T12:20:55;4.93;;;2.22;;
73266;SDS011;61495;53.400;7.608;2023-04-05T12:23:21;3.50;;;1.85;;
73266;SDS011;61495;53.400;7.608;2023-04-05T12:25:48;4.35;;;1.80;;
73266;SDS011;61495;53.400;7.608;2023-04-05T12:28:14;4.05;;;1.95;;
73266;SDS011;61495;53.400;7.608;2023-04-05T12:30:49;5.13;;;2.03;;
73266;SDS011;61495;53.400;7.608;2023-04-05T12:33:24;4.65;;;1.98;;
73266;SDS011;61495;53.400;7.608;2023-04-05T12:35:53;4.13;;;2.15;;
73266;SDS011;61495;53.400;7.608;2023-04-05T12:38:19;3.42;;;1.85;;
73266;SDS011;61495;53.400;7.608;2023-04-05T12:40:44;3.50;;;1.88;;
73266;SDS011;61495;53.400;7.608;2023-04-05T12:43:10;4.95;;;2.28;;
73266;SDS011;61495;53.400;7.608;2023-04-05T12:45:43;3.85;;;2.15;;
73266;SDS011;61495;53.400;7.608;2023-04-05T12:48:12;4.97;;;1.98;;
73266;SDS011;61495;53.400;7.608;2023-04-05T12:50:43;5.18;;;2.22;;
73266;SDS011;61495;53.400;7.608;2023-04-05T12:53:14;4.50;;;2.30;;
73266;SDS011;61495;53.400;7.608;2023-04-05T12:55:42;4.60;;;2.10;;
73266;SDS011;61495;53.400;7.608;2023-04-05T12:58:11;3.88;;;2.08;;
73266;SDS011;61495;53.400;7.608;2023-04-05T13:00:38;4.75;;;2.17;;
73266;SDS011;61495;53.400;7.608;2023-04-05T13:03:04;3.05;;;1.77;;
73266;SDS011;61495;53.400;7.608;2023-04-05T13:05:30;3.63;;;1.88;;
73266;SDS011;61495;53.400;7.608;2023-04-05T13:07:56;4.05;;;2.20;;
73266;SDS011;61495;53.400;7.608;2023-04-05T13:10:22;3.80;;;1.95;;
73266;SDS011;61495;53.400;7.608;2023-04-05T13:12:48;3.50;;;1.90;;
73266;SDS011;61495;53.400;7.608;2023-04-05T13:15:15;6.03;;;2.22;;
73266;SDS011;61495;53.400;7.608;2023-04-05T13:17:41;4.00;;;2.20;;
73266;SDS011;61495;53.400;7.608;2023-04-05T13:20:07;3.47;;;1.85;;
73266;SDS011;61495;53.400;7.608;2023-04-05T13:22:33;4.43;;;2.08;;
73266;SDS011;61495;53.400;7.608;2023-04-05T13:24:59;4.35;;;2.13;;
73266;SDS011;61495;53.400;7.608;2023-04-05T13:27:25;5.53;;;2.22;;
73266;SDS011;61495;53.400;7.608;2023-04-05T13:29:50;3.80;;;1.90;;
73266;SDS011;61495;53.400;7.608;2023-04-05T13:32:16;5.45;;;2.60;;
73266;SDS011;61495;53.400;7.608;2023-04-05T13:34:41;4.63;;;2.30;;
73266;SDS011;61495;53.400;7.608;2023-04-05T13:37:06;4.78;;;2.15;;
73266;SDS011;61495;53.400;7.608;2023-04-05T13:39:32;3.45;;;1.80;;
73266;SDS011;61495;53.400;7.608;2023-04-05T13:41:57;5.78;;;2.15;;
73266;SDS011;61495;53.400;7.608;2023-04-05T13:44:22;4.00;;;2.25;;
73266;SDS011;61495;53.400;7.608;2023-04-05T13:46:48;4.32;;;2.17;;
73266;SDS011;61495;53.400;7.608;2023-04-05T13:49:13;4.38;;;2.15;;
73266;SDS011;61495;53.400;7.608;2023-04-05T13:51:39;4.65;;;2.00;;
73266;SDS011;61495;53.400;7.608;2023-04-05T13:54:07;3.90;;;1.80;;
73266;SDS011;61495;53.400;7.608;2023-04-05T13:56:35;4.78;;;1.90;;
73266;SDS011;61495;53.400;7.608;2023-04-05T13:59:00;5.03;;;2.28;;
73266;SDS011;61495;53.400;7.608;2023-04-05T14:01:26;4.13;;;2.30;;
73266;SDS011;61495;53.400;7.608;2023-04-05T14:03:51;3.95;;;2.13;;
73266;SDS011;61495;53.400;7.608;2023-04-05T14:06:16;5.93;;;1.95;;
73266;SDS011;61495;53.400;7.608;2023-04-05T14:08:42;3.63;;;1.90;;
73266;SDS011;61495;53.400;7.608;2023-04-05T14:11:08;3.58;;;2.03;;
73266;SDS011;61495;53.400;7.608;2023-04-05T14:13:33;4.13;;;2.55;;
73266;SDS011;61495;53.400;7.608;2023-04-05T14:15:59;3.97;;;2.05;;
73266;SDS011;61495;53.400;7.608;2023-04-05T14:18:24;4.55;;;1.92;;
73266;SDS011;61495;53.400;7.608;2023-04-05T14:20:50;4.95;;;2.30;;
73266;SDS011;61495;53.400;7.608;2023-04-05T14:23:15;5.15;;;2.47;;
73266;SDS011;61495;53.400;7.608;2023-04-05T14:25:40;4.53;;;2.15;;
73266;SDS011;61495;53.400;7.608;2023-04-05T14:28:06;4.13;;;2.85;;
73266;SDS011;61495;53.400;7.608;2023-04-05T14:30:31;5.97;;;2.38;;
73266;SDS011;61495;53.400;7.608;2023-04-05T14:32:57;5.60;;;2.30;;
73266;SDS011;61495;53.400;7.608;2023-04-05T14:35:22;4.03;;;2.15;;
73266;SDS011;61495;53.400;7.608;2023-04-05T14:37:47;3.92;;;2.50;;
73266;SDS011;61495;53.400;7.608;2023-04-05T14:40:13;4.60;;;2.65;;
73266;SDS011;61495;53.400;7.608;2023-04-05T14:42:38;4.50;;;2.92;;
73266;SDS011;61495;53.400;7.608;2023-04-05T14:45:04;4.78;;;2.50;;
73266;SDS011;61495;53.400;7.608;2023-04-05T14:47:30;4.68;;;2.67;;
73266;SDS011;61495;53.400;7.608;2023-04-05T14:49:55;4.70;;;2.25;;
73266;SDS011;61495;53.400;7.608;2023-04-05T14:52:20;5.03;;;2.83;;
73266;SDS011;61495;53.400;7.608;2023-04-05T14:54:46;3.88;;;2.30;;
73266;SDS011;61495;53.400;7.608;2023-04-05T14:57:11;3.83;;;2.30;;
73266;SDS011;61495;53.400;7.608;2023-04-05T14:59:36;4.88;;;2.33;;
73266;SDS011;61495;53.400;7.608;2023-04-05T15:02:02;4.20;;;2.38;;
73266;SDS011;61495;53.400;7.608;2023-04-05T15:04:27;4.35;;;2.22;;
73266;SDS011;61495;53.400;7.608;2023-04-05T15:06:53;4.38;;;2.38;;
73266;SDS011;61495;53.400;7.608;2023-04-05T15:09:18;4.20;;;2.55;;
73266;SDS011;61495;53.400;7.608;2023-04-05T15:11:43;4.22;;;2.80;;
73266;SDS011;61495;53.400;7.608;2023-04-05T15:14:09;5.30;;;2.35;;
73266;SDS011;61495;53.400;7.608;2023-04-05T15:16:34;4.22;;;2.10;;
73266;SDS011;61495;53.400;7.608;2023-04-05T15:19:00;5.53;;;2.30;;
73266;SDS011;61495;53.400;7.608;2023-04-05T15:21:25;5.55;;;2.40;;
73266;SDS011;61495;53.400;7.608;2023-04-05T15:23:51;4.60;;;2.08;;
73266;SDS011;61495;53.400;7.608;2023-04-05T15:26:16;6.30;;;2.88;;
73266;SDS011;61495;53.400;7.608;2023-04-05T15:28:41;4.70;;;2.30;;
73266;SDS011;61495;53.400;7.608;2023-04-05T15:31:07;4.53;;;2.13;;
73266;SDS011;61495;53.400;7.608;2023-04-05T15:33:32;5.50;;;2.30;;
73266;SDS011;61495;53.400;7.608;2023-04-05T15:35:58;4.13;;;2.33;;
73266;SDS011;61495;53.400;7.608;2023-04-05T15:38:23;5.50;;;2.80;;
73266;SDS011;61495;53.400;7.608;2023-04-05T15:40:48;4.65;;;2.45;;
73266;SDS011;61495;53.400;7.608;2023-04-05T15:43:16;5.00;;;2.85;;
73266;SDS011;61495;53.400;7.608;2023-04-05T15:45:42;4.97;;;2.10;;
73266;SDS011;61495;53.400;7.608;2023-04-05T15:48:08;7.40;;;2.45;;
73266;SDS011;61495;53.400;7.608;2023-04-05T15:50:33;5.05;;;2.80;;
73266;SDS011;61495;53.400;7.608;2023-04-05T15:52:58;5.30;;;3.10;;
73266;SDS011;61495;53.400;7.608;2023-04-05T15:55:24;6.32;;;2.55;;
73266;SDS011;61495;53.400;7.608;2023-04-05T15:57:49;4.60;;;2.63;;
73266;SDS011;61495;53.400;7.608;2023-04-05T16:00:18;5.68;;;3.28;;
73266;SDS011;61495;53.400;7.608;2023-04-05T16:02:44;6.35;;;3.42;;
73266;SDS011;61495;53.400;7.608;2023-04-05T16:05:10;6.72;;;3.30;;
73266;SDS011;61495;53.400;7.608;2023-04-05T16:07:35;5.40;;;2.70;;
73266;SDS011;61495;53.400;7.608;2023-04-05T16:10:01;4.60;;;2.25;;
73266;SDS011;61495;53.400;7.608;2023-04-05T16:12:26;4.28;;;2.20;;
73266;SDS011;61495;53.400;7.608;2023-04-05T16:14:52;3.92;;;2.72;;
73266;SDS011;61495;53.400;7.608;2023-04-05T16:17:17;3.90;;;2.22;;
73266;SDS011;61495;53.400;7.608;2023-04-05T16:19:42;4.85;;;2.60;;
73266;SDS011;61495;53.400;7.608;2023-04-05T16:22:08;5.90;;;2.20;;
73266;SDS011;61495;53.400;7.608;2023-04-05T16:24:33;5.43;;;2.50;;
73266;SDS011;61495;53.400;7.608;2023-04-05T16:27:00;4.43;;;2.45;;
73266;SDS011;61495;53.400;7.608;2023-04-05T16:29:26;4.10;;;2.38;;
73266;SDS011;61495;53.400;7.608;2023-04-05T16:31:52;5.15;;;2.22;;